Time;durP1;ratioP1;P1;durP2;ratioP2;P2;SDS_P1;SDS_P2;PMS_P1;PMS_P2;Temp;Humidity;BMP_temperature;BMP_pressure;BME280_temperature;BME280_humidity;BME280_pressure;Samples;Min_cycle;Max_cycle;Signal;HPM_P1;HPM_P2
2021/03/09 00:00:44;;;;;;;;;;;11.70;99.90;;;;;;5116142;28;20284;-47
2021/03/09 00:03:16;;;;;;;;;;;11.70;99.90;;;;;;5117021;28;19931;-47
2021/03/09 00:05:48;;;;;;;;;;;11.70;99.90;;;;;;5118459;28;20026;-48
2021/03/09 00:08:15;;;;;;;;;;;11.70;99.90;;;;;;5099696;28;19934;-47
2021/03/09 00:10:44;;;;;;;;;;;11.60;99.90;;;;;;5116808;28;19927;-47
2021/03/09 00:13:14;;;;;;;;;;;11.60;99.90;;;;;;5116543;28;20339;-48
2021/03/09 00:15:45;;;;;;;;;;;11.60;99.90;;;;;;5100133;28;20499;-47
2021/03/09 00:18:16;;;;;;;;;;;11.60;99.90;;;;;;5100580;28;20030;-47
2021/03/09 00:20:46;;;;;;;;;;;11.60;99.90;;;;;;5117863;28;20404;-53
2021/03/09 00:23:13;;;;;;;;;;;11.60;99.90;;;;;;5116651;28;19930;-53
2021/03/09 00:25:43;;;;;;;;;;;11.60;99.90;;;;;;5099485;28;19924;-51
2021/03/09 00:28:10;;;;;;;;;;;11.70;99.90;;;;;;5116694;28;20313;-50
2021/03/09 00:30:40;;;;;;;;;;;11.70;99.90;;;;;;5099541;28;19970;-48
2021/03/09 00:33:07;;;;;;;;;;;11.70;99.90;;;;;;5082515;28;20027;-48
2021/03/09 00:35:43;;;;;;;;;;;11.70;99.90;;;;;;5116352;28;19950;-52
2021/03/09 00:38:12;;;;;;;;;;;11.70;99.90;;;;;;5116293;28;19984;-51
2021/03/09 00:40:41;;;;;;;;;;;11.70;99.90;;;;;;5117717;28;19924;-54
2021/03/09 00:43:08;;;;;;;;;;;11.70;99.90;;;;;;5099346;28;19924;-48
2021/03/09 00:45:39;;;;;;;;;;;11.70;99.90;;;;;;5117456;28;20370;-48
2021/03/09 00:48:06;;;;;;;;;;;11.70;99.90;;;;;;5115102;28;20286;-49
2021/03/09 00:50:42;;;;;;;;;;;11.60;99.90;;;;;;5116085;28;19930;-51
2021/03/09 00:53:09;;;;;;;;;;;11.70;99.90;;;;;;5115812;28;19956;-48
2021/03/09 00:55:36;;;;;;;;;;;11.70;99.90;;;;;;5116129;28;19931;-53
2021/03/09 00:58:03;;;;;;;;;;;11.70;99.90;;;;;;5116228;28;20284;-49
2021/03/09 01:00:31;;;;;;;;;;;11.80;99.90;;;;;;5099070;28;20258;-52
2021/03/09 01:02:58;;;;;;;;;;;11.80;99.90;;;;;;5115986;28;19991;-47
2021/03/09 01:05:27;;;;;;;;;;;11.80;99.90;;;;;;5115631;28;20367;-48
2021/03/09 01:07:54;;;;;;;;;;;11.80;99.90;;;;;;5098611;28;19950;-48
2021/03/09 01:10:23;;;;;;;;;;;11.80;99.90;;;;;;5116975;28;19924;-49
2021/03/09 01:12:52;;;;;;;;;;;11.90;99.90;;;;;;5115676;28;20381;-52
2021/03/09 01:15:20;;;;;;;;;;;11.90;99.90;;;;;;5098450;28;19959;-49
2021/03/09 01:17:48;;;;;;;;;;;11.90;99.90;;;;;;5115847;28;19924;-47
2021/03/09 01:20:15;;;;;;;;;;;11.80;99.90;;;;;;5115413;28;20069;-46
2021/03/09 01:22:42;;;;;;;;;;;11.90;99.90;;;;;;5116643;27;20356;-48
2021/03/09 01:25:09;;;;;;;;;;;11.80;99.90;;;;;;5098521;28;19923;-48
2021/03/09 01:27:36;;;;;;;;;;;11.80;99.90;;;;;;5115417;28;19928;-47
2021/03/09 01:30:08;;;;;;;;;;;11.90;99.90;;;;;;5115309;28;19923;-47
2021/03/09 01:32:37;;;;;;;;;;;11.90;99.90;;;;;;5098380;28;20296;-49
2021/03/09 01:35:04;;;;;;;;;;;11.90;99.90;;;;;;5115202;28;19924;-48
2021/03/09 01:37:31;;;;;;;;;;;11.90;99.90;;;;;;5115053;28;20301;-48
2021/03/09 01:39:59;;;;;;;;;;;11.90;99.90;;;;;;5114577;28;20004;-53
2021/03/09 01:42:29;;;;;;;;;;;11.80;99.90;;;;;;5116242;28;20377;-50
2021/03/09 01:44:59;;;;;;;;;;;11.80;99.90;;;;;;5115110;28;19924;-54
2021/03/09 01:47:34;;;;;;;;;;;11.80;99.90;;;;;;5116125;28;19923;-48
2021/03/09 01:50:07;;;;;;;;;;;11.80;99.90;;;;;;5081231;28;19924;-48
2021/03/09 01:52:34;;;;;;;;;;;11.80;99.90;;;;;;5097937;28;19935;-47
2021/03/09 01:55:02;;;;;;;;;;;11.80;99.90;;;;;;5097912;28;19973;-52
2021/03/09 01:57:30;;;;;;;;;;;11.70;99.90;;;;;;5114674;28;19931;-50
2021/03/09 01:59:59;;;;;;;;;;;11.70;99.90;;;;;;5115504;28;19924;-47
2021/03/09 02:02:27;;;;;;;;;;;11.70;99.90;;;;;;5115652;28;19959;-49
2021/03/09 02:04:55;;;;;;;;;;;11.70;99.90;;;;;;5114599;28;19931;-49
2021/03/09 02:07:24;;;;;;;;;;;11.70;99.90;;;;;;5114291;28;19963;-49
2021/03/09 02:09:53;;;;;;;;;;;11.70;99.90;;;;;;5097964;28;19923;-48
2021/03/09 02:12:21;;;;;;;;;;;11.70;99.90;;;;;;5114052;28;20275;-52
2021/03/09 02:14:53;;;;;;;;;;;11.70;99.90;;;;;;5115464;28;19931;-47
2021/03/09 02:17:30;;;;;;;;;;;11.70;99.90;;;;;;5114365;28;19977;-48
2021/03/09 02:20:09;;;;;;;;;;;11.70;99.90;;;;;;5114459;28;19925;-47
2021/03/09 02:23:01;;;;;;;;;;;11.70;99.90;;;;;;5115508;28;19928;-48
2021/03/09 02:25:43;;;;;;;;;;;11.70;99.90;;;;;;5097282;28;19931;-49
2021/03/09 02:28:12;;;;;;;;;;;11.60;99.90;;;;;;5114349;28;20022;-47
2021/03/09 02:30:43;;;;;;;;;;;11.60;99.90;;;;;;5115429;28;19931;-48
2021/03/09 02:33:16;;;;;;;;;;;11.60;99.90;;;;;;5097230;28;19973;-50
2021/03/09 02:36:02;;;;;;;;;;;11.60;99.90;;;;;;5097537;28;19924;-47
2021/03/09 02:38:38;;;;;;;;;;;11.60;99.90;;;;;;5097444;28;20000;-47
2021/03/09 02:41:06;;;;;;;;;;;11.60;99.90;;;;;;5097148;28;19946;-48
2021/03/09 02:43:33;;;;;;;;;;;11.60;99.90;;;;;;5113977;28;19923;-47
2021/03/09 02:46:02;;;;;;;;;;;11.60;99.90;;;;;;5113901;28;19975;-46
2021/03/09 02:48:29;;;;;;;;;;;11.60;99.90;;;;;;5113755;28;19947;-47
2021/03/09 02:50:58;;;;;;;;;;;11.60;99.90;;;;;;5114907;28;19924;-47
2021/03/09 02:53:29;;;;;;;;;;;11.60;99.90;;;;;;5113726;28;19966;-47
2021/03/09 02:56:01;;;;;;;;;;;11.60;99.90;;;;;;5097295;28;20339;-46
2021/03/09 02:58:29;;;;;;;;;;;11.50;99.90;;;;;;5114818;28;19924;-53
2021/03/09 03:00:56;;;;;;;;;;;11.50;99.90;;;;;;5113548;28;20037;-54
2021/03/09 03:03:28;;;;;;;;;;;11.40;99.90;;;;;;5097214;28;20346;-53
2021/03/09 03:05:57;;;;;;;;;;;11.40;99.90;;;;;;5096820;28;19924;-47
2021/03/09 03:08:24;;;;;;;;;;;11.40;99.90;;;;;;5113348;28;20370;-48
2021/03/09 03:10:53;;;;;;;;;;;11.40;99.90;;;;;;5112878;28;19923;-47
2021/03/09 03:13:21;;;;;;;;;;;11.40;99.90;;;;;;5113296;28;19927;-49
2021/03/09 03:15:51;;;;;;;;;;;11.40;99.90;;;;;;5113430;28;19946;-53
2021/03/09 03:18:22;;;;;;;;;;;11.40;99.90;;;;;;5097405;28;20388;-52
2021/03/09 03:20:49;;;;;;;;;;;11.40;99.90;;;;;;5114858;28;20373;-48
2021/03/09 03:23:17;;;;;;;;;;;11.40;99.90;;;;;;5114484;28;19924;-50
2021/03/09 03:25:49;;;;;;;;;;;11.40;99.90;;;;;;5113219;28;19924;-47
2021/03/09 03:28:16;;;;;;;;;;;11.40;99.90;;;;;;5113422;28;20417;-47
2021/03/09 03:30:46;;;;;;;;;;;11.40;99.90;;;;;;5113177;28;19985;-48
2021/03/09 03:33:13;;;;;;;;;;;11.50;99.90;;;;;;5114416;28;19931;-49
2021/03/09 03:35:40;;;;;;;;;;;11.40;99.90;;;;;;5113193;28;19924;-54
2021/03/09 03:38:08;;;;;;;;;;;11.40;99.90;;;;;;5096238;28;19924;-51
2021/03/09 03:40:35;;;;;;;;;;;11.40;99.90;;;;;;5096141;28;19927;-52
2021/03/09 03:43:02;;;;;;;;;;;11.40;99.90;;;;;;5114331;28;19923;-50
2021/03/09 03:45:29;;;;;;;;;;;11.40;99.90;;;;;;5113016;28;20293;-47
2021/03/09 03:47:56;;;;;;;;;;;11.40;99.90;;;;;;5114293;28;20316;-52
2021/03/09 03:50:24;;;;;;;;;;;11.40;99.90;;;;;;5114417;28;20348;-47
2021/03/09 03:53:10;;;;;;;;;;;11.40;99.90;;;;;;5113023;28;19967;-48
2021/03/09 03:55:56;;;;;;;;;;;11.40;99.90;;;;;;5113044;28;20383;-48
2021/03/09 03:58:32;;;;;;;;;;;11.40;99.90;;;;;;5114299;28;19953;-47
2021/03/09 04:01:00;;;;;;;;;;;11.40;99.90;;;;;;5096214;28;19923;-47
2021/03/09 04:03:29;;;;;;;;;;;11.40;99.90;;;;;;5095752;28;19973;-47
2021/03/09 04:06:06;;;;;;;;;;;11.40;99.90;;;;;;5113283;28;19924;-46
2021/03/09 04:08:38;;;;;;;;;;;11.40;99.90;;;;;;5112835;28;19980;-47
2021/03/09 04:11:06;;;;;;;;;;;11.30;99.90;;;;;;5112873;28;20026;-48
2021/03/09 04:13:37;;;;;;;;;;;11.30;99.90;;;;;;5114035;28;19924;-48
2021/03/09 04:16:05;;;;;;;;;;;11.30;99.90;;;;;;5096016;28;20374;-46
2021/03/09 04:18:33;;;;;;;;;;;11.30;99.90;;;;;;5112711;28;19930;-53
2021/03/09 04:21:02;;;;;;;;;;;11.30;99.90;;;;;;5113022;28;19939;-54
2021/03/09 04:23:30;;;;;;;;;;;11.30;99.90;;;;;;5116272;28;19973;-52
2021/03/09 04:26:01;;;;;;;;;;;11.30;99.90;;;;;;5116526;28;20026;-50
2021/03/09 04:28:29;;;;;;;;;;;11.30;99.90;;;;;;5117602;28;19923;-51
2021/03/09 04:31:00;;;;;;;;;;;11.30;99.90;;;;;;5117696;28;19924;-47
2021/03/09 04:33:27;;;;;;;;;;;11.30;99.90;;;;;;5117578;28;20464;-51
2021/03/09 04:35:58;;;;;;;;;;;11.30;99.90;;;;;;5116311;28;20034;-51
2021/03/09 04:38:26;;;;;;;;;;;11.30;99.90;;;;;;5116295;28;19927;-52
2021/03/09 04:40:53;;;;;;;;;;;11.30;99.90;;;;;;5116664;28;19931;-52
2021/03/09 04:43:20;;;;;;;;;;;11.30;99.90;;;;;;5116141;28;19973;-47
2021/03/09 04:45:47;;;;;;;;;;;11.30;99.90;;;;;;5117256;28;19930;-49
2021/03/09 04:48:15;;;;;;;;;;;11.30;99.90;;;;;;5116127;28;20094;-47
2021/03/09 04:51:01;;;;;;;;;;;11.30;99.90;;;;;;5117470;28;20020;-50
2021/03/09 04:53:32;;;;;;;;;;;11.30;99.90;;;;;;5117302;28;20289;-47
2021/03/09 04:56:09;;;;;;;;;;;11.30;99.90;;;;;;5116157;28;19993;-47
2021/03/09 04:58:36;;;;;;;;;;;11.30;99.90;;;;;;5115934;28;20370;-47
2021/03/09 05:01:03;;;;;;;;;;;11.30;99.90;;;;;;5117014;28;20390;-50
2021/03/09 05:03:38;;;;;;;;;;;11.30;99.90;;;;;;5115369;28;19955;-47
2021/03/09 05:06:08;;;;;;;;;;;11.30;99.90;;;;;;5116013;28;19924;-46
2021/03/09 05:08:43;;;;;;;;;;;11.30;99.90;;;;;;5116987;27;20026;-47
2021/03/09 05:11:10;;;;;;;;;;;11.30;99.90;;;;;;5115760;28;19923;-47
2021/03/09 05:13:37;;;;;;;;;;;11.30;99.90;;;;;;5115546;28;19931;-47
2021/03/09 05:16:05;;;;;;;;;;;11.30;99.90;;;;;;5115725;28;19924;-46
2021/03/09 05:18:37;;;;;;;;;;;11.40;99.90;;;;;;5116847;28;19924;-46
2021/03/09 05:21:18;;;;;;;;;;;11.30;99.90;;;;;;5115646;28;19977;-46
2021/03/09 05:23:57;;;;;;;;;;;11.30;99.90;;;;;;5115466;28;19966;-49
2021/03/09 05:26:30;;;;;;;;;;;11.40;99.90;;;;;;5115514;28;20343;-48
2021/03/09 05:29:00;;;;;;;;;;;11.40;99.90;;;;;;5116645;28;19924;-47
2021/03/09 05:31:37;;;;;;;;;;;11.40;99.90;;;;;;5099530;28;20370;-47
2021/03/09 05:34:07;;;;;;;;;;;11.40;99.90;;;;;;5114878;28;19924;-47
2021/03/09 05:36:40;;;;;;;;;;;11.50;99.90;;;;;;5114767;28;19931;-50
2021/03/09 05:39:10;;;;;;;;;;;11.60;99.90;;;;;;5115857;27;19928;-54
2021/03/09 05:41:37;;;;;;;;;;;11.60;99.90;;;;;;5098076;28;20018;-52
2021/03/09 05:44:05;;;;;;;;;;;11.80;99.90;;;;;;5115083;28;20347;-50
2021/03/09 05:46:36;;;;;;;;;;;11.90;99.90;;;;;;5115068;28;19931;-49
2021/03/09 05:49:03;;;;;;;;;;;12.10;99.90;;;;;;5116164;28;19923;-48
2021/03/09 05:51:43;;;;;;;;;;;12.20;99.90;;;;;;5116257;28;20290;-47
2021/03/09 05:54:10;;;;;;;;;;;12.40;99.90;;;;;;5114976;28;19969;-52
2021/03/09 05:56:37;;;;;;;;;;;12.50;99.90;;;;;;5114830;28;19934;-53
2021/03/09 05:59:04;;;;;;;;;;;12.60;99.90;;;;;;5114722;28;19927;-53
2021/03/09 06:01:34;;;;;;;;;;;12.80;99.90;;;;;;5115653;28;19924;-47
2021/03/09 06:04:01;;;;;;;;;;;12.90;99.90;;;;;;5114500;28;20026;-50
2021/03/09 06:06:29;;;;;;;;;;;13.10;99.90;;;;;;5115836;28;19932;-47
2021/03/09 06:09:33;;;;;;;;;;;13.20;99.90;;;;;;5114737;28;20351;-49
2021/03/09 06:12:07;;;;;;;;;;;13.40;99.90;;;;;;5115768;28;20369;-47
2021/03/09 06:14:37;;;;;;;;;;;13.60;99.90;;;;;;5115747;28;19924;-47
2021/03/09 06:17:05;;;;;;;;;;;13.70;99.90;;;;;;5097509;28;20327;-48
2021/03/09 06:19:46;;;;;;;;;;;13.70;99.90;;;;;;5099003;28;19977;-48
2021/03/09 06:22:19;;;;;;;;;;;13.90;99.90;;;;;;5114414;28;19930;-49
2021/03/09 06:25:02;;;;;;;;;;;14.00;99.90;;;;;;5115531;28;19924;-47
2021/03/09 06:27:33;;;;;;;;;;;14.20;99.90;;;;;;5114239;28;19924;-50
2021/03/09 06:30:04;;;;;;;;;;;14.30;99.90;;;;;;5115372;28;19969;-48
2021/03/09 06:32:38;;;;;;;;;;;14.40;99.90;;;;;;5097055;28;19931;-48
2021/03/09 06:35:28;;;;;;;;;;;14.60;99.90;;;;;;5097393;28;19934;-52
2021/03/09 06:38:14;;;;;;;;;;;14.90;99.90;;;;;;5114122;28;19924;-48
2021/03/09 06:40:42;;;;;;;;;;;15.20;99.90;;;;;;5080364;28;19923;-46
2021/03/09 06:43:16;;;;;;;;;;;15.50;99.90;;;;;;5114068;28;19935;-47
2021/03/09 06:45:44;;;;;;;;;;;15.70;99.80;;;;;;5113578;28;20015;-47
2021/03/09 06:48:21;;;;;;;;;;;15.90;99.40;;;;;;5115031;28;20275;-48
2021/03/09 06:50:48;;;;;;;;;;;16.20;99.10;;;;;;5097081;28;19924;-47
2021/03/09 06:53:36;;;;;;;;;;;16.40;98.40;;;;;;5096862;28;19977;-48
2021/03/09 06:56:22;;;;;;;;;;;16.70;98.40;;;;;;5093354;28;19924;-47
2021/03/09 06:58:49;;;;;;;;;;;17.00;98.20;;;;;;5113814;28;19924;-54
2021/03/09 07:01:16;;;;;;;;;;;17.10;97.00;;;;;;5113696;28;20415;-54
2021/03/09 07:03:43;;;;;;;;;;;17.30;97.30;;;;;;5113473;28;20343;-53
2021/03/09 07:06:10;;;;;;;;;;;17.40;97.10;;;;;;5096484;28;19924;-51
2021/03/09 07:08:37;;;;;;;;;;;17.50;96.90;;;;;;5113404;28;19928;-49
2021/03/09 07:11:05;;;;;;;;;;;17.70;96.90;;;;;;5114651;28;19924;-51
2021/03/09 07:13:33;;;;;;;;;;;17.80;96.80;;;;;;5096224;28;19924;-48
2021/03/09 07:16:01;;;;;;;;;;;17.90;96.70;;;;;;5096445;28;19923;-47
2021/03/09 07:18:29;;;;;;;;;;;17.60;96.30;;;;;;5113463;28;20336;-47
2021/03/09 07:20:57;;;;;;;;;;;17.50;96.30;;;;;;5113472;28;19977;-49
2021/03/09 07:23:25;;;;;;;;;;;17.20;96.40;;;;;;5114585;28;19978;-46
2021/03/09 07:25:54;;;;;;;;;;;17.30;96.90;;;;;;5113317;28;19923;-48
2021/03/09 07:28:28;;;;;;;;;;;17.40;96.70;;;;;;5097422;28;19977;-47
2021/03/09 07:30:58;;;;;;;;;;;17.60;96.90;;;;;;5096992;28;19923;-49
2021/03/09 07:33:33;;;;;;;;;;;17.50;96.60;;;;;;5097232;28;19931;-46
2021/03/09 07:36:03;;;;;;;;;;;17.40;96.50;;;;;;5112911;28;20304;-46
2021/03/09 07:38:30;;;;;;;;;;;17.50;96.40;;;;;;5113219;28;19924;-48
2021/03/09 07:40:58;;;;;;;;;;;17.60;96.60;;;;;;5114589;28;20380;-46
2021/03/09 07:43:28;;;;;;;;;;;17.70;96.00;;;;;;5114433;28;19924;-47
2021/03/09 07:45:55;;;;;;;;;;;17.80;95.40;;;;;;5113105;28;19988;-51
2021/03/09 07:48:25;;;;;;;;;;;17.90;95.50;;;;;;5096489;28;20285;-46
2021/03/09 07:51:01;;;;;;;;;;;17.70;95.50;;;;;;5113122;28;20373;-46
2021/03/09 07:53:31;;;;;;;;;;;17.60;95.40;;;;;;5079178;28;20344;-48
2021/03/09 07:56:04;;;;;;;;;;;17.60;95.40;;;;;;5114226;28;19912;-50
2021/03/09 07:58:32;;;;;;;;;;;17.80;95.40;;;;;;5116807;28;19912;-47
2021/03/09 08:00:59;;;;;;;;;;;17.90;95.30;;;;;;5117519;28;19919;-49
2021/03/09 08:03:25;;;;;;;;;;;18.20;95.30;;;;;;5099984;28;20014;-51
2021/03/09 08:05:56;;;;;;;;;;;18.40;94.70;;;;;;5100069;28;19912;-49
2021/03/09 08:08:42;;;;;;;;;;;18.60;94.40;;;;;;5116744;28;19920;-50
2021/03/09 08:11:24;;;;;;;;;;;18.40;93.60;;;;;;5117901;28;19912;-48
2021/03/09 08:14:03;;;;;;;;;;;18.50;93.60;;;;;;5083054;28;19962;-47
2021/03/09 08:16:33;;;;;;;;;;;18.60;93.50;;;;;;5100312;28;19931;-50
2021/03/09 08:19:04;;;;;;;;;;;18.50;93.60;;;;;;5099906;28;19969;-52
2021/03/09 08:21:51;;;;;;;;;;;18.70;93.40;;;;;;5099774;28;20396;-52
2021/03/09 08:24:20;;;;;;;;;;;18.90;93.80;;;;;;5099738;28;20014;-50
2021/03/09 08:26:50;;;;;;;;;;;19.20;93.20;;;;;;5100139;28;19924;-51
2021/03/09 08:29:28;;;;;;;;;;;19.30;92.40;;;;;;5100040;28;19938;-50
2021/03/09 08:32:35;;;;;;;;;;;19.40;91.60;;;;;;5116442;28;20278;-47
2021/03/09 08:35:12;;;;;;;;;;;19.60;91.10;;;;;;5078169;28;19924;-51
2021/03/09 08:37:41;;;;;;;;;;;19.60;91.30;;;;;;5078339;28;19928;-50
2021/03/09 08:40:10;;;;;;;;;;;19.80;91.20;;;;;;5084508;28;20031;-51
2021/03/09 08:42:56;;;;;;;;;;;19.90;91.20;;;;;;5081180;28;19924;-51
2021/03/09 08:45:33;;;;;;;;;;;20.10;91.10;;;;;;5089560;28;20488;-50
2021/03/09 08:48:03;;;;;;;;;;;20.10;90.40;;;;;;5088358;28;19928;-48
2021/03/09 08:50:49;;;;;;;;;;;19.80;89.50;;;;;;5074005;28;19928;-46
2021/03/09 08:53:29;;;;;;;;;;;19.70;88.20;;;;;;5060206;28;20035;-47
2021/03/09 08:56:06;;;;;;;;;;;19.50;89.00;;;;;;5090223;28;19947;-49
2021/03/09 08:58:40;;;;;;;;;;;19.50;89.80;;;;;;5090715;28;19935;-49
2021/03/09 09:01:07;;;;;;;;;;;19.50;88.90;;;;;;5094477;28;20323;-47
2021/03/09 09:03:35;;;;;;;;;;;19.30;89.50;;;;;;5095787;28;19930;-46
2021/03/09 09:06:07;;;;;;;;;;;19.50;88.30;;;;;;5077860;28;19973;-51
2021/03/09 09:08:34;;;;;;;;;;;19.80;87.90;;;;;;5059115;28;20498;-49
2021/03/09 09:11:02;;;;;;;;;;;20.20;86.90;;;;;;5093543;28;19924;-48
2021/03/09 09:13:33;;;;;;;;;;;20.00;87.30;;;;;;5091611;28;19928;-51
2021/03/09 09:16:15;;;;;;;;;;;19.80;87.50;;;;;;5074605;28;19924;-54
2021/03/09 09:18:42;;;;;;;;;;;19.60;86.80;;;;;;5076572;28;21295;-48
2021/03/09 09:21:10;;;;;;;;;;;19.30;88.30;;;;;;5092971;28;20003;-50
2021/03/09 09:23:38;;;;;;;;;;;19.40;88.40;;;;;;5095335;28;19924;-50
2021/03/09 09:26:12;;;;;;;;;;;19.60;88.60;;;;;;5095212;28;19935;-51
2021/03/09 09:28:42;;;;;;;;;;;19.80;89.10;;;;;;5095872;28;19932;-52
2021/03/09 09:31:12;;;;;;;;;;;20.00;87.90;;;;;;5095993;28;19924;-51
2021/03/09 09:33:47;;;;;;;;;;;20.30;87.20;;;;;;5073124;28;19924;-52
2021/03/09 09:36:19;;;;;;;;;;;20.20;86.10;;;;;;5077115;28;19928;-52
2021/03/09 09:38:53;;;;;;;;;;;19.90;86.20;;;;;;5092994;28;19934;-52
2021/03/09 09:41:22;;;;;;;;;;;19.80;86.60;;;;;;5060984;28;19924;-50
2021/03/09 09:43:52;;;;;;;;;;;19.50;87.90;;;;;;5094264;28;19950;-51
2021/03/09 09:46:25;;;;;;;;;;;19.50;88.70;;;;;;5070128;28;19925;-54
2021/03/09 09:48:53;;;;;;;;;;;19.60;88.80;;;;;;5088708;28;20371;-53
2021/03/09 09:51:21;;;;;;;;;;;19.50;86.80;;;;;;5086177;28;19924;-51
2021/03/09 09:53:54;;;;;;;;;;;19.40;87.30;;;;;;5066240;28;20409;-50
2021/03/09 09:56:23;;;;;;;;;;;19.30;87.00;;;;;;5076419;28;20382;-49
2021/03/09 09:58:51;;;;;;;;;;;19.20;86.60;;;;;;5091801;28;19924;-49
2021/03/09 10:01:19;;;;;;;;;;;19.10;87.30;;;;;;5075498;28;19924;-49
2021/03/09 10:03:55;;;;;;;;;;;19.00;87.80;;;;;;5074844;28;19946;-50
2021/03/09 10:06:24;;;;;;;;;;;18.90;87.70;;;;;;5073621;28;19974;-50
2021/03/09 10:08:53;;;;;;;;;;;18.80;88.20;;;;;;5040640;28;19925;-52
2021/03/09 10:11:21;;;;;;;;;;;18.70;88.70;;;;;;5073460;28;19924;-50
2021/03/09 10:14:02;;;;;;;;;;;18.80;88.20;;;;;;5057035;28;19928;-52
2021/03/09 10:16:39;;;;;;;;;;;19.00;88.30;;;;;;5074702;28;19947;-51
2021/03/09 10:19:10;;;;;;;;;;;19.20;87.60;;;;;;5073676;28;19924;-52
2021/03/09 10:21:39;;;;;;;;;;;19.40;86.70;;;;;;5073456;28;19937;-50
2021/03/09 10:24:07;;;;;;;;;;;19.50;85.30;;;;;;5056866;28;19931;-52
2021/03/09 10:26:39;;;;;;;;;;;19.30;84.40;;;;;;5056883;28;19925;-50
2021/03/09 10:29:12;;;;;;;;;;;19.30;85.60;;;;;;5073324;28;19944;-48
2021/03/09 10:31:51;;;;;;;;;;;19.30;86.70;;;;;;5073579;28;19931;-48
2021/03/09 10:34:20;;;;;;;;;;;18.90;86.60;;;;;;5056855;28;19929;-50
2021/03/09 10:36:47;;;;;;;;;;;18.70;87.60;;;;;;5074271;28;19947;-49
2021/03/09 10:39:19;;;;;;;;;;;18.90;87.20;;;;;;5073050;28;19970;-51
2021/03/09 10:41:46;;;;;;;;;;;19.10;87.20;;;;;;5072905;28;20275;-50
2021/03/09 10:44:34;;;;;;;;;;;19.00;87.60;;;;;;5073339;28;19978;-51
2021/03/09 10:47:06;;;;;;;;;;;19.10;87.50;;;;;;5072984;28;20349;-53
2021/03/09 10:49:34;;;;;;;;;;;19.20;87.30;;;;;;5073150;28;19939;-48
2021/03/09 10:52:09;;;;;;;;;;;19.30;86.00;;;;;;5072806;28;19928;-52
2021/03/09 10:54:37;;;;;;;;;;;19.40;85.80;;;;;;5073924;28;20286;-53
2021/03/09 10:57:11;;;;;;;;;;;19.50;86.00;;;;;;5072690;28;20424;-52
2021/03/09 10:59:39;;;;;;;;;;;19.40;86.60;;;;;;5056328;28;19924;-51
2021/03/09 11:02:23;;;;;;;;;;;19.20;86.00;;;;;;5071132;28;19913;-50
2021/03/09 11:04:50;;;;;;;;;;;19.10;85.90;;;;;;5069622;28;19955;-50
2021/03/09 11:07:20;;;;;;;;;;;19.00;87.00;;;;;;5069805;28;19925;-51
2021/03/09 11:09:49;;;;;;;;;;;19.00;87.10;;;;;;5053466;28;19925;-50
2021/03/09 11:12:17;;;;;;;;;;;18.90;87.50;;;;;;5070862;28;19925;-48
2021/03/09 11:14:44;;;;;;;;;;;18.80;87.40;;;;;;5069401;28;20377;-47
2021/03/09 11:17:12;;;;;;;;;;;18.90;87.40;;;;;;5070656;28;19925;-48
2021/03/09 11:19:40;;;;;;;;;;;18.80;87.40;;;;;;5070676;28;19932;-49
2021/03/09 11:22:08;;;;;;;;;;;18.80;86.30;;;;;;5053019;28;19933;-47
2021/03/09 11:24:35;;;;;;;;;;;18.80;86.50;;;;;;5070673;28;19978;-48
2021/03/09 11:27:04;;;;;;;;;;;18.50;86.80;;;;;;5069739;28;20290;-49
2021/03/09 11:29:33;;;;;;;;;;;18.40;87.30;;;;;;5052779;28;20220;-46
2021/03/09 11:32:01;;;;;;;;;;;18.50;88.00;;;;;;5052876;28;19932;-49
2021/03/09 11:34:32;;;;;;;;;;;18.50;87.60;;;;;;5053092;28;19939;-50
2021/03/09 11:37:00;;;;;;;;;;;18.70;87.40;;;;;;5070401;28;19931;-46
2021/03/09 11:39:29;;;;;;;;;;;18.70;86.60;;;;;;5070270;28;19925;-47
2021/03/09 11:41:56;;;;;;;;;;;18.80;86.90;;;;;;5069026;28;20337;-50
2021/03/09 11:44:24;;;;;;;;;;;18.90;85.70;;;;;;5069925;28;20326;-49
2021/03/09 11:46:52;;;;;;;;;;;18.90;84.30;;;;;;5070369;28;19983;-48
2021/03/09 11:49:20;;;;;;;;;;;18.90;85.00;;;;;;5068742;28;19925;-46
2021/03/09 11:51:48;;;;;;;;;;;18.90;85.80;;;;;;5070093;28;19925;-46
2021/03/09 11:54:15;;;;;;;;;;;18.70;85.60;;;;;;5070086;28;20367;-46
2021/03/09 11:56:43;;;;;;;;;;;18.80;86.20;;;;;;5068618;28;19924;-46
2021/03/09 11:59:10;;;;;;;;;;;18.70;85.40;;;;;;5069759;28;19939;-46
2021/03/09 12:01:38;;;;;;;;;;;18.70;84.90;;;;;;5084776;28;19932;-47
2021/03/09 12:04:05;;;;;;;;;;;18.70;84.90;;;;;;5072049;28;19931;-46
2021/03/09 12:06:33;;;;;;;;;;;18.60;84.50;;;;;;5071911;28;19932;-50
2021/03/09 12:09:02;;;;;;;;;;;18.80;84.30;;;;;;5071832;28;20382;-46
2021/03/09 12:11:30;;;;;;;;;;;19.10;83.70;;;;;;5089011;28;20377;-50
2021/03/09 12:13:57;;;;;;;;;;;19.20;82.90;;;;;;5058149;28;19931;-47
2021/03/09 12:16:25;;;;;;;;;;;19.40;82.60;;;;;;5041367;28;20014;-53
2021/03/09 12:18:52;;;;;;;;;;;19.40;82.20;;;;;;5076375;28;19925;-51
2021/03/09 12:21:20;;;;;;;;;;;19.40;81.90;;;;;;5076031;28;20289;-53
2021/03/09 12:23:50;;;;;;;;;;;19.20;82.60;;;;;;5058312;28;19963;-52
2021/03/09 12:26:18;;;;;;;;;;;19.30;82.60;;;;;;5058193;28;19925;-47
2021/03/09 12:28:56;;;;;;;;;;;19.40;82.20;;;;;;5043318;28;20290;-49
2021/03/09 12:31:24;;;;;;;;;;;19.30;83.20;;;;;;5075980;28;19924;-47
2021/03/09 12:33:52;;;;;;;;;;;19.20;82.70;;;;;;5058258;28;19950;-50
2021/03/09 12:36:19;;;;;;;;;;;19.00;82.30;;;;;;5075871;28;19960;-47
2021/03/09 12:38:47;;;;;;;;;;;18.90;82.80;;;;;;5075992;28;20370;-48
2021/03/09 12:41:16;;;;;;;;;;;18.80;82.50;;;;;;5058160;28;19924;-49
2021/03/09 12:43:44;;;;;;;;;;;18.90;82.80;;;;;;5032191;28;19947;-49
2021/03/09 12:46:12;;;;;;;;;;;18.70;82.40;;;;;;5062919;28;19978;-48
2021/03/09 12:48:40;;;;;;;;;;;18.80;83.10;;;;;;5030078;28;19968;-53
2021/03/09 12:51:07;;;;;;;;;;;18.80;83.60;;;;;;5062908;28;19928;-52
2021/03/09 12:53:35;;;;;;;;;;;18.80;84.00;;;;;;5035476;28;20393;-48
2021/03/09 12:56:04;;;;;;;;;;;18.80;84.20;;;;;;5055827;28;19932;-51
2021/03/09 12:58:37;;;;;;;;;;;18.90;83.10;;;;;;5038777;28;19925;-48
2021/03/09 13:01:05;;;;;;;;;;;18.70;83.40;;;;;;5021562;28;19925;-49
2021/03/09 13:03:33;;;;;;;;;;;18.70;84.10;;;;;;5021669;28;19925;-48
2021/03/09 13:06:01;;;;;;;;;;;18.50;82.90;;;;;;5037947;28;20302;-52
2021/03/09 13:08:29;;;;;;;;;;;18.40;83.50;;;;;;5055601;28;20275;-48
2021/03/09 13:10:58;;;;;;;;;;;18.30;84.20;;;;;;5056835;28;19986;-51
2021/03/09 13:13:25;;;;;;;;;;;18.30;83.90;;;;;;5057689;28;19924;-50
2021/03/09 13:15:53;;;;;;;;;;;18.30;83.50;;;;;;5075471;28;19932;-49
2021/03/09 13:18:21;;;;;;;;;;;18.30;83.50;;;;;;5057667;28;19928;-48
2021/03/09 13:20:49;;;;;;;;;;;18.10;83.00;;;;;;5075253;28;19931;-47
2021/03/09 13:23:16;;;;;;;;;;;17.90;82.40;;;;;;5074893;28;19931;-48
2021/03/09 13:25:44;;;;;;;;;;;17.90;82.60;;;;;;5057054;28;19924;-49
2021/03/09 13:28:12;;;;;;;;;;;17.90;83.80;;;;;;5073571;28;20340;-49
2021/03/09 13:30:39;;;;;;;;;;;17.90;84.40;;;;;;5050487;28;19925;-50
2021/03/09 13:33:07;;;;;;;;;;;18.00;84.90;;;;;;5037275;28;19935;-47
2021/03/09 13:35:35;;;;;;;;;;;18.10;83.30;;;;;;5055287;28;19925;-54
2021/03/09 13:38:05;;;;;;;;;;;18.00;82.30;;;;;;5037763;28;20074;-51
2021/03/09 13:40:33;;;;;;;;;;;18.00;81.70;;;;;;5020983;28;20282;-53
2021/03/09 13:43:02;;;;;;;;;;;17.90;81.30;;;;;;5059674;28;20023;-53
2021/03/09 13:45:30;;;;;;;;;;;17.80;82.90;;;;;;5045807;28;20019;-53
2021/03/09 13:47:58;;;;;;;;;;;17.80;82.80;;;;;;5035018;28;19925;-50
2021/03/09 13:50:25;;;;;;;;;;;17.70;83.70;;;;;;5030594;28;20016;-49
2021/03/09 13:52:53;;;;;;;;;;;17.60;86.00;;;;;;5045691;28;20028;-47
2021/03/09 13:55:21;;;;;;;;;;;17.50;86.40;;;;;;5050802;28;19924;-49
2021/03/09 13:57:48;;;;;;;;;;;17.40;87.70;;;;;;5031565;28;20259;-49
2021/03/09 14:00:17;;;;;;;;;;;17.40;87.50;;;;;;5056635;28;19967;-51
2021/03/09 14:02:56;;;;;;;;;;;17.40;88.60;;;;;;5074448;28;19928;-53
2021/03/09 14:05:24;;;;;;;;;;;17.40;89.40;;;;;;5040622;28;20374;-50
2021/03/09 14:07:51;;;;;;;;;;;17.40;90.00;;;;;;5066831;28;19925;-50
2021/03/09 14:10:19;;;;;;;;;;;17.30;89.70;;;;;;5060547;28;19928;-48
2021/03/09 14:12:49;;;;;;;;;;;17.40;89.80;;;;;;5019944;28;19929;-51
2021/03/09 14:15:18;;;;;;;;;;;17.30;89.80;;;;;;5022398;28;19947;-49
2021/03/09 14:17:45;;;;;;;;;;;17.30;89.60;;;;;;5062193;28;19925;-49
2021/03/09 14:20:14;;;;;;;;;;;17.30;90.00;;;;;;5053895;28;19964;-53
2021/03/09 14:22:43;;;;;;;;;;;17.30;90.30;;;;;;5036011;28;19924;-48
2021/03/09 14:25:11;;;;;;;;;;;17.30;90.30;;;;;;5039836;28;20507;-49
2021/03/09 14:27:42;;;;;;;;;;;17.40;89.40;;;;;;5039184;28;20370;-48
2021/03/09 14:30:11;;;;;;;;;;;17.30;88.20;;;;;;5052953;28;19924;-47
2021/03/09 14:32:39;;;;;;;;;;;17.20;88.00;;;;;;5007062;28;20000;-52
2021/03/09 14:35:08;;;;;;;;;;;17.10;89.40;;;;;;5056301;28;20294;-47